Lake Chesterfield, Missouri
Current Conditions -  °F | °C
As of 2:54 PM on Friday 24 Oct 2014 (Local Time) from KSUS Reporting Station
Broken Clouds Broken Clouds  
Wind Chill: 73°   Ceiling: 20000
Heat Index: 73°   Visibility: 10mi
Dew Point: 49°   Wind: 6mph
Humidity: 42%   Direction: 240°WSW
Pressure: 30.03"   Gusts: NA
Location:  38.5699°N, 90.6264°W
Report Text: KSUS 241954Z 24005KT 10SM BKN200 23/09 A3003 RMK AO2 SLP166 T02280094
Loading
Personal Weather Stations






























Interactive Weather Map
Tropical Storm Tracking
New forecast layout! Learn more

10-Day Weather Forecast

Advertisements
Track Severe Weather on mobile